メインページ
METAR-TAF:

METAR-TAF

空港 :

モントリオール・ピエール・エリオット・トルドー国際空港

モントリオール・トルドー, ケベック州, カナダ

緯度: 45-28N, 経度: 073-45W, 海抜: 31m

現時点の気象観測

当レポートは12分前の17:00(UTC)に作成
西/北西の風 10kt、最大17ktの突風を伴う
気温 11°C
湿度 35%
気圧 1019 hPa
視程: 48.3km
高度7000ftの曇り

METAR: CYUL 311700Z 30010G17KT 30SM OVC070 11/M04 A3010 RMK CU8 SLP196

時間: 13:12 (17:12 UTC)

予報

当レポートは2時間34分前の14:38(UTC)に作成
予報は31日の 15時(UTC)から 01日の 12時(UTC)まで有効
西の風 8kt
視程: 10km
高度4000ftの雲はほとんどない
31日の 15時(UTC)から 31日の 17時(UTC)まで一時的に
視程: 10km
高度4000ftの千切れ雲あり
弱いにわか雨
31日の 15時(UTC)から 31日の 17時(UTC)まで徐々に
西/北西の風 15kt
31日の 1700時(UTC)から
西/北西の風 15kt
視程: 10km
高度6000ftの千切れ雲あり
31日の 17時(UTC)から 31日の 24時(UTC)まで一時的に
視程: 10km
弱いにわか雨
01日の 0000時(UTC)から
西/北西の風 12kt
視程: 10km
高度6000ftの雲はほとんどない
01日の 0400時(UTC)から
西の風 5kt
視程: 10km
高度6000ftの千切れ雲あり
01日の 04時(UTC)から 01日の 08時(UTC)まで一時的に
視程: 10km
弱いにわか雨

TAF: CYUL 311438Z 3115/0112 28008KT P6SM FEW040 TEMPO 3115/3117 P6SM -SHRA BKN040 BECMG 3115/3117 30015KT FM311700 30015KT P6SM BKN060 TEMPO 3117/3124 P6SM -SHRA FM010000 29012KT P6SM FEW060 FM010400 27005KT P6SM BKN060 TEMPO 0104/0108 P6SM -SHRA RMK NXT FCST BY 311800Z

4,000以上の空港の気象観測と天気予報(METAR報とTAF報)

利用可能な観測所は地図上に黄色い丸と赤い丸で示す。

丸の上にカーソルを重ねると観測所名を参照できる。

次にクリックすると気象観測と天気予報を参照できる。

マップの切り替え:黒色「×」印の緑ボタンをクリックして拡大、「-」印の緑ボタンをクリックして縮小、緑色の三角印をクリックして隣りの地図に切り替え


METAR-TAF: